Time;durP1;ratioP1;P1;durP2;ratioP2;P2;SDS_P1;SDS_P2;PMS_P1;PMS_P2;Temp;Humidity;BMP_temperature;BMP_pressure;BME280_temperature;BME280_humidity;BME280_pressure;Samples;Min_cycle;Max_cycle;Signal;HPM_P1;HPM_P2
2022/12/31 00:00:33;;;;;;;3.37;2.33;;;18.20;70.30;;;;;;4990371;28;20484;-76
2022/12/31 00:03:01;;;;;;;2.80;2.20;;;18.20;70.10;;;;;;4986005;28;20453;-77
2022/12/31 00:05:31;;;;;;;2.37;2.00;;;18.20;70.00;;;;;;4989124;28;20519;-77
2022/12/31 00:07:59;;;;;;;6.00;2.40;;;18.20;69.80;;;;;;4991886;28;20480;-77
2022/12/31 00:10:27;;;;;;;2.50;1.90;;;18.20;69.70;;;;;;4992392;28;20473;-77
2022/12/31 00:12:55;;;;;;;2.70;2.30;;;18.20;69.60;;;;;;4993578;28;20469;-77
2022/12/31 00:15:24;;;;;;;4.30;2.00;;;18.30;69.50;;;;;;4995101;28;20449;-77
2022/12/31 00:17:52;;;;;;;4.63;2.10;;;18.30;69.20;;;;;;4995729;28;20512;-78
2022/12/31 00:20:20;;;;;;;1.90;1.80;;;18.30;69.20;;;;;;4995650;28;20460;-78
2022/12/31 00:22:49;;;;;;;2.90;2.30;;;18.30;69.20;;;;;;5002357;28;20499;-78
2022/12/31 00:25:17;;;;;;;5.30;2.23;;;18.30;68.90;;;;;;4996111;28;20480;-77
2022/12/31 00:27:45;;;;;;;2.73;2.13;;;18.30;68.70;;;;;;4994088;28;20452;-78
2022/12/31 00:30:14;;;;;;;3.10;2.30;;;18.30;68.90;;;;;;4996803;28;20476;-78
2022/12/31 00:32:43;;;;;;;2.90;2.10;;;18.30;68.70;;;;;;4987095;28;20509;-77
2022/12/31 00:35:11;;;;;;;2.70;2.10;;;18.30;68.60;;;;;;4993118;28;20460;-78
2022/12/31 00:37:38;;;;;;;2.40;2.20;;;18.30;68.60;;;;;;4990929;28;20473;-79
2022/12/31 00:40:10;;;;;;;3.37;2.10;;;18.40;68.50;;;;;;4990885;28;20477;-77
2022/12/31 00:42:38;;;;;;;2.37;2.17;;;18.40;68.40;;;;;;4992065;28;20457;-77
2022/12/31 00:45:08;;;;;;;2.30;2.10;;;18.40;68.40;;;;;;4986330;28;20453;-77
2022/12/31 00:47:35;;;;;;;2.67;2.40;;;18.40;68.40;;;;;;4990428;28;20461;-77
2022/12/31 00:50:04;;;;;;;2.20;2.10;;;18.40;68.20;;;;;;4992031;28;20481;-78
2022/12/31 00:52:32;;;;;;;3.17;2.07;;;18.40;68.20;;;;;;4990570;28;20473;-78
2022/12/31 00:55:00;;;;;;;2.50;2.33;;;18.40;68.30;;;;;;4992837;28;20457;-76
2022/12/31 00:57:29;;;;;;;2.60;2.40;;;18.40;68.30;;;;;;4991749;28;20449;-76
2022/12/31 00:59:57;;;;;;;2.23;2.00;;;18.40;68.30;;;;;;4991688;28;20477;-76
2022/12/31 01:02:26;;;;;;;2.43;2.10;;;18.40;68.30;;;;;;4986551;28;20457;-76
2022/12/31 01:04:54;;;;;;;2.47;2.27;;;18.40;68.20;;;;;;4992059;28;20450;-76
2022/12/31 01:07:22;;;;;;;2.20;2.00;;;18.40;68.20;;;;;;4984639;28;20473;-77
2022/12/31 01:09:52;;;;;;;3.47;2.10;;;18.40;68.20;;;;;;4991981;28;20457;-77
2022/12/31 01:12:20;;;;;;;2.60;2.40;;;18.40;68.30;;;;;;4982283;28;20457;-77
2022/12/31 01:14:49;;;;;;;3.70;3.40;;;18.40;68.10;;;;;;4986802;28;20469;-77
2022/12/31 01:17:18;;;;;;;5.10;3.83;;;18.40;68.20;;;;;;4986676;28;20445;-77
2022/12/31 01:19:46;;;;;;;5.30;4.20;;;18.40;68.20;;;;;;4990988;28;20473;-77
2022/12/31 01:22:14;;;;;;;5.30;4.27;;;18.40;68.20;;;;;;4993270;28;20469;-77
2022/12/31 01:24:42;;;;;;;4.73;4.27;;;18.40;68.10;;;;;;4987726;28;20457;-78
2022/12/31 01:27:10;;;;;;;4.17;3.77;;;18.40;68.10;;;;;;4991487;28;20469;-77
2022/12/31 01:29:38;;;;;;;4.80;3.77;;;18.40;68.00;;;;;;4996770;28;20492;-77
2022/12/31 01:32:08;;;;;;;3.93;3.60;;;18.50;68.10;;;;;;4992988;28;20455;-78
2022/12/31 01:34:36;;;;;;;9.47;3.80;;;18.40;68.00;;;;;;4987987;28;20456;-78
2022/12/31 01:37:04;;;;;;;4.57;3.70;;;18.50;68.00;;;;;;4994859;28;20472;-78
2022/12/31 01:39:32;;;;;;;4.80;3.70;;;18.40;68.00;;;;;;4992476;28;20469;-78
2022/12/31 01:42:03;;;;;;;4.30;3.90;;;18.50;68.10;;;;;;4997541;28;20797;-78
2022/12/31 01:44:58;;;;;;;3.90;3.60;;;18.50;68.10;;;;;;4990588;28;20449;-77
2022/12/31 01:47:33;;;;;;;3.80;3.50;;;18.50;67.90;;;;;;4957234;28;20480;-77
2022/12/31 01:50:04;;;;;;;5.60;3.53;;;18.40;68.00;;;;;;4991047;28;20479;-78
2022/12/31 01:52:34;;;;;;;3.90;3.50;;;18.50;68.10;;;;;;4989493;28;20560;-79
2022/12/31 01:55:05;;;;;;;3.67;3.30;;;18.50;68.80;;;;;;4986246;28;20457;-79
2022/12/31 01:57:32;;;;;;;6.00;3.90;;;18.40;68.10;;;;;;4987689;28;20454;-79
2022/12/31 02:00:00;;;;;;;3.90;3.60;;;18.50;68.00;;;;;;4991177;28;20472;-79
2022/12/31 02:02:28;;;;;;;3.97;3.57;;;18.50;68.00;;;;;;4989932;28;20480;-79
2022/12/31 02:05:00;;;;;;;3.93;3.50;;;18.50;68.10;;;;;;4988776;28;20465;-78
2022/12/31 02:07:30;;;;;;;4.17;3.10;;;18.50;68.10;;;;;;4990126;28;20508;-78
2022/12/31 02:09:59;;;;;;;4.00;3.30;;;18.50;68.10;;;;;;4989667;28;20473;-78
2022/12/31 02:12:27;;;;;;;2.83;2.63;;;18.50;68.00;;;;;;4990521;28;20457;-79
2022/12/31 02:14:54;;;;;;;3.47;3.17;;;18.50;68.10;;;;;;4989838;28;20512;-79
2022/12/31 02:17:27;;;;;;;4.73;3.57;;;18.50;68.10;;;;;;4990359;28;20449;-79
2022/12/31 02:20:33;;;;;;;3.40;3.10;;;18.50;68.00;;;;;;4991129;28;20468;-78
2022/12/31 02:23:24;;;;;;;3.73;3.43;;;18.60;68.10;;;;;;4959046;28;20469;-79
2022/12/31 02:26:04;;;;;;;3.20;2.90;;;18.50;68.00;;;;;;4969947;28;20449;-79
2022/12/31 02:28:43;;;;;;;3.23;3.03;;;18.50;68.10;;;;;;4988229;28;20472;-79
2022/12/31 02:31:14;;;;;;;3.47;3.17;;;18.50;68.10;;;;;;4989860;28;20495;-78
2022/12/31 02:33:46;;;;;;;5.40;3.00;;;18.50;68.00;;;;;;4989704;28;20953;-79
2022/12/31 02:36:17;;;;;;;3.33;3.00;;;18.50;68.00;;;;;;4984966;28;20435;-78
2022/12/31 02:38:46;;;;;;;3.33;3.03;;;18.50;68.00;;;;;;4989199;28;20457;-77
2022/12/31 02:41:48;;;;;;;3.00;2.80;;;18.50;67.80;;;;;;4988635;28;20476;-76
2022/12/31 02:44:21;;;;;;;5.50;3.20;;;18.50;67.80;;;;;;4984903;28;20453;-76
2022/12/31 02:46:54;;;;;;;2.87;2.67;;;18.60;67.90;;;;;;4990527;28;20477;-76
2022/12/31 02:49:23;;;;;;;3.30;3.00;;;18.60;67.90;;;;;;4988423;28;20476;-76
2022/12/31 02:51:55;;;;;;;3.03;2.83;;;18.50;67.80;;;;;;4994926;28;20488;-76
2022/12/31 02:54:28;;;;;;;2.80;2.60;;;18.60;67.80;;;;;;5001776;28;20448;-77
2022/12/31 02:57:03;;;;;;;2.90;2.70;;;18.60;67.90;;;;;;4997159;28;20444;-76
2022/12/31 03:02:20;;;;;;;3.17;2.97;;;18.60;67.80;;;;;;4989188;28;20449;-78
2022/12/31 03:04:49;;;;;;;3.40;3.10;;;18.60;67.90;;;;;;4985904;28;20485;-78
2022/12/31 03:07:19;;;;;;;3.30;2.70;;;18.60;67.80;;;;;;4985253;28;20484;-78
2022/12/31 03:09:46;;;;;;;3.07;2.87;;;18.60;67.80;;;;;;4980546;28;20484;-78
2022/12/31 03:15:00;;;;;;;3.17;2.30;;;18.60;68.50;;;;;;4981202;28;20452;-76
2022/12/31 03:17:29;;;;;;;3.00;2.70;;;18.60;67.80;;;;;;4979008;28;20454;-76
2022/12/31 03:22:42;;;;;;;3.80;2.50;;;18.60;67.90;;;;;;4988016;28;20485;-76
2022/12/31 03:27:56;;;;;;;2.93;2.73;;;18.60;67.80;;;;;;4991089;28;20480;-76
2022/12/31 03:30:25;;;;;;;3.00;2.80;;;18.60;67.90;;;;;;4980636;28;20477;-76
2022/12/31 03:32:55;;;;;;;3.00;2.53;;;18.60;67.80;;;;;;4988387;28;20468;-78
2022/12/31 03:35:24;;;;;;;2.60;2.37;;;18.60;67.80;;;;;;4990207;28;20460;-76
2022/12/31 03:37:52;;;;;;;3.00;2.80;;;18.60;67.80;;;;;;4989668;28;20477;-76
2022/12/31 03:40:21;;;;;;;3.77;2.63;;;18.60;67.70;;;;;;4989593;28;20470;-77
2022/12/31 03:42:49;;;;;;;2.90;2.70;;;18.60;67.70;;;;;;4991332;28;20464;-77
2022/12/31 03:45:18;;;;;;;2.77;2.63;;;18.60;67.80;;;;;;4988128;28;20450;-76
2022/12/31 03:47:46;;;;;;;2.80;2.60;;;18.60;67.70;;;;;;4987237;28;20484;-77
2022/12/31 03:50:16;;;;;;;2.93;2.70;;;18.60;67.70;;;;;;4987642;28;20473;-79
2022/12/31 03:52:44;;;;;;;2.77;2.57;;;18.60;67.70;;;;;;4995062;28;20453;-78
2022/12/31 03:55:12;;;;;;;2.30;2.20;;;18.60;67.70;;;;;;4987134;28;20461;-78
2022/12/31 03:57:40;;;;;;;3.13;2.87;;;18.60;67.70;;;;;;4985227;28;20523;-78
2022/12/31 04:00:10;;;;;;;2.63;2.43;;;18.60;67.70;;;;;;4987582;28;20473;-78
2022/12/31 04:02:38;;;;;;;2.73;2.53;;;18.60;67.70;;;;;;4978327;28;20456;-76
2022/12/31 04:05:07;;;;;;;3.80;2.43;;;18.60;67.80;;;;;;4980955;28;21014;-76
2022/12/31 04:07:36;;;;;;;2.60;2.33;;;18.70;67.80;;;;;;4981010;28;20485;-76
2022/12/31 04:10:05;;;;;;;2.30;2.20;;;18.60;67.80;;;;;;4985497;28;20473;-78
2022/12/31 04:12:33;;;;;;;2.30;2.10;;;18.60;67.90;;;;;;4989499;28;20468;-78
2022/12/31 04:15:01;;;;;;;2.57;2.37;;;18.70;67.70;;;;;;4992333;28;20529;-76
2022/12/31 04:17:28;;;;;;;2.53;2.33;;;18.70;67.70;;;;;;4986998;28;20466;-76
2022/12/31 04:19:56;;;;;;;2.27;1.97;;;18.70;67.70;;;;;;4989138;28;20478;-76
2022/12/31 04:22:24;;;;;;;3.13;2.30;;;18.60;67.70;;;;;;4986897;28;20466;-76
2022/12/31 04:24:54;;;;;;;2.27;2.17;;;18.70;67.70;;;;;;4990329;28;20457;-76
2022/12/31 04:27:22;;;;;;;2.20;2.10;;;18.60;67.80;;;;;;4987278;28;20469;-78
2022/12/31 04:29:49;;;;;;;2.27;2.07;;;18.60;67.70;;;;;;4984632;28;20469;-78
2022/12/31 04:32:17;;;;;;;3.03;2.30;;;18.60;67.70;;;;;;4986295;28;20541;-77
2022/12/31 04:34:45;;;;;;;2.60;2.40;;;18.70;67.70;;;;;;4991980;28;20449;-78
2022/12/31 04:37:13;;;;;;;3.70;2.57;;;18.70;67.80;;;;;;4987412;28;20450;-76
2022/12/31 04:39:41;;;;;;;2.50;2.30;;;18.60;67.70;;;;;;4988356;28;20477;-76
2022/12/31 04:42:10;;;;;;;2.37;2.17;;;18.60;67.80;;;;;;4983795;28;20464;-76
2022/12/31 04:44:38;;;;;;;2.03;1.93;;;18.60;67.80;;;;;;4985126;28;20547;-76
2022/12/31 04:47:06;;;;;;;2.13;2.00;;;18.60;67.80;;;;;;4985565;28;20948;-78
2022/12/31 04:49:33;;;;;;;2.57;2.37;;;18.70;67.80;;;;;;4990330;28;20500;-78
2022/12/31 04:52:01;;;;;;;2.23;1.97;;;18.70;67.90;;;;;;4989098;28;20507;-77
2022/12/31 04:54:29;;;;;;;2.50;2.30;;;18.60;67.70;;;;;;4989946;28;20462;-76
2022/12/31 04:56:57;;;;;;;3.17;2.20;;;18.70;67.70;;;;;;4990389;28;20465;-76
2022/12/31 04:59:27;;;;;;;2.03;1.93;;;18.70;67.80;;;;;;4986075;28;20484;-76
2022/12/31 05:01:55;;;;;;;2.23;2.10;;;18.70;67.80;;;;;;4986738;28;20460;-77
2022/12/31 05:04:23;;;;;;;2.30;1.90;;;18.60;67.70;;;;;;4986422;28;20532;-77
2022/12/31 05:06:51;;;;;;;1.80;1.70;;;18.60;67.70;;;;;;4984809;28;20472;-77
2022/12/31 05:09:20;;;;;;;2.33;2.20;;;18.70;67.80;;;;;;4983102;28;20474;-77
2022/12/31 05:11:48;;;;;;;2.40;2.13;;;18.70;67.80;;;;;;4978734;28;20461;-77
2022/12/31 05:14:16;;;;;;;7.33;1.90;;;18.60;67.60;;;;;;4982975;28;20457;-77
2022/12/31 05:16:46;;;;;;;2.10;2.00;;;18.60;67.70;;;;;;4979616;28;20460;-77
2022/12/31 05:19:14;;;;;;;7.93;2.23;;;18.60;67.70;;;;;;4978670;28;20584;-76
2022/12/31 05:21:42;;;;;;;2.63;2.00;;;18.60;67.70;;;;;;4985476;28;20468;-76
2022/12/31 05:24:10;;;;;;;2.10;2.00;;;18.60;67.70;;;;;;4990740;28;20456;-77
2022/12/31 05:26:38;;;;;;;2.30;1.70;;;18.60;67.70;;;;;;4983763;28;20484;-77
2022/12/31 05:29:06;;;;;;;1.90;1.80;;;18.60;67.60;;;;;;4985920;28;20473;-77
2022/12/31 05:31:34;;;;;;;2.03;1.93;;;18.60;67.60;;;;;;4982925;28;20458;-77
2022/12/31 05:34:03;;;;;;;2.00;1.90;;;18.60;67.60;;;;;;4989828;28;20461;-77
2022/12/31 05:36:31;;;;;;;4.17;1.93;;;18.60;67.50;;;;;;4981404;28;20468;-76
2022/12/31 05:38:59;;;;;;;1.80;1.70;;;18.60;67.70;;;;;;4982708;28;20465;-77
2022/12/31 05:41:27;;;;;;;1.77;1.67;;;18.60;67.60;;;;;;4984874;28;20468;-77
2022/12/31 05:43:55;;;;;;;2.03;1.63;;;18.60;67.50;;;;;;4982723;28;20461;-77
2022/12/31 05:46:23;;;;;;;3.13;1.90;;;18.60;67.70;;;;;;4981602;28;20457;-77
2022/12/31 05:48:52;;;;;;;1.80;1.70;;;18.60;67.70;;;;;;4987776;28;20539;-77
2022/12/31 05:51:21;;;;;;;1.93;1.83;;;18.60;67.70;;;;;;4985017;28;20540;-77
2022/12/31 05:53:49;;;;;;;1.80;1.70;;;18.60;67.80;;;;;;4988369;28;20460;-77
2022/12/31 05:56:19;;;;;;;1.60;1.50;;;18.60;67.70;;;;;;4982851;28;20457;-77
2022/12/31 05:58:47;;;;;;;3.17;2.00;;;18.60;67.70;;;;;;4979203;28;20453;-77
2022/12/31 06:01:15;;;;;;;1.93;1.83;;;18.60;67.70;;;;;;4988363;28;20483;-77
2022/12/31 06:03:44;;;;;;;1.87;1.77;;;18.60;67.70;;;;;;4981902;28;20477;-77
2022/12/31 06:06:12;;;;;;;1.90;1.80;;;18.60;67.70;;;;;;4983129;28;20469;-77
2022/12/31 06:08:41;;;;;;;1.53;1.43;;;18.60;67.70;;;;;;4989107;28;20477;-78
2022/12/31 06:11:10;;;;;;;2.40;1.83;;;18.60;67.60;;;;;;4988888;28;20473;-78
2022/12/31 06:13:38;;;;;;;2.00;1.50;;;18.60;68.20;;;;;;4990166;28;20461;-77
2022/12/31 06:16:06;;;;;;;1.80;1.70;;;18.60;67.70;;;;;;4982948;28;20453;-77
2022/12/31 06:18:34;;;;;;;2.07;1.70;;;18.60;67.70;;;;;;4981942;28;20497;-77
2022/12/31 06:21:02;;;;;;;1.50;1.40;;;18.60;67.80;;;;;;4984107;28;20489;-77
2022/12/31 06:23:30;;;;;;;1.67;1.57;;;18.60;67.70;;;;;;4980911;28;20462;-77
2022/12/31 06:26:02;;;;;;;2.10;1.57;;;18.60;67.80;;;;;;4988913;28;20508;-77
2022/12/31 06:28:30;;;;;;;1.87;1.77;;;18.60;67.70;;;;;;4987019;28;20484;-77
2022/12/31 06:30:59;;;;;;;1.80;1.70;;;18.60;67.70;;;;;;4985264;28;20496;-77
2022/12/31 06:33:27;;;;;;;1.67;1.57;;;18.60;67.80;;;;;;4986952;28;20473;-76
2022/12/31 06:35:55;;;;;;;2.10;1.87;;;18.60;67.80;;;;;;4987545;28;20529;-78
2022/12/31 06:38:24;;;;;;;1.87;1.77;;;18.60;67.80;;;;;;4985337;28;20456;-76
2022/12/31 06:40:51;;;;;;;1.63;1.53;;;18.60;67.80;;;;;;4984876;28;20477;-77
2022/12/31 06:43:21;;;;;;;3.27;1.50;;;18.60;67.80;;;;;;4984778;28;20838;-76
2022/12/31 06:45:49;;;;;;;2.30;1.60;;;18.60;67.70;;;;;;4980762;28;20420;-76
2022/12/31 06:48:17;;;;;;;1.40;1.40;;;18.60;67.80;;;;;;4991859;28;20468;-77
2022/12/31 06:50:45;;;;;;;2.13;2.03;;;18.60;67.80;;;;;;4992033;28;20500;-76
2022/12/31 06:53:13;;;;;;;1.40;1.23;;;18.60;67.70;;;;;;4989518;28;20449;-76
2022/12/31 06:55:41;;;;;;;1.53;1.43;;;18.60;67.80;;;;;;4982340;28;20461;-77
2022/12/31 06:58:10;;;;;;;2.63;1.60;;;18.60;67.60;;;;;;4980606;28;20457;-77
2022/12/31 07:00:39;;;;;;;1.70;1.60;;;18.60;67.80;;;;;;4985046;28;20523;-76
2022/12/31 07:03:18;;;;;;;1.47;1.37;;;18.60;67.70;;;;;;4982658;28;20453;-76
2022/12/31 07:05:46;;;;;;;1.60;1.33;;;18.60;67.70;;;;;;4982927;28;20492;-76
2022/12/31 07:08:21;;;;;;;1.60;1.50;;;18.60;67.80;;;;;;4976422;28;20475;-77
2022/12/31 07:10:52;;;;;;;4.20;1.40;;;18.60;67.80;;;;;;4977295;28;20488;-77
2022/12/31 07:13:29;;;;;;;1.60;1.50;;;18.60;67.80;;;;;;4985333;28;20820;-77
2022/12/31 07:16:08;;;;;;;1.70;1.60;;;18.60;67.70;;;;;;4978903;28;20532;-77
2022/12/31 07:18:38;;;;;;;1.40;1.40;;;18.60;67.70;;;;;;4980102;28;20453;-77
2022/12/31 07:21:09;;;;;;;2.20;1.40;;;18.60;67.80;;;;;;4986925;28;20477;-77
2022/12/31 07:23:38;;;;;;;1.70;1.60;;;18.60;67.70;;;;;;4981022;28;20456;-76
2022/12/31 07:26:07;;;;;;;1.50;1.40;;;18.60;67.70;;;;;;4983905;28;20450;-76
2022/12/31 07:28:48;;;;;;;1.47;1.37;;;18.60;67.70;;;;;;4988542;28;20453;-77
2022/12/31 07:31:23;;;;;;;1.70;1.60;;;18.60;67.70;;;;;;4983969;28;20504;-76
2022/12/31 07:33:56;;;;;;;1.43;1.33;;;18.60;67.80;;;;;;4985751;28;20499;-77
2022/12/31 07:36:32;;;;;;;1.27;1.17;;;18.60;67.70;;;;;;4987751;28;20464;-76
2022/12/31 07:39:02;;;;;;;1.80;1.70;;;18.60;67.70;;;;;;4987755;28;20452;-77
2022/12/31 07:41:47;;;;;;;2.33;1.73;;;18.60;67.70;;;;;;4983995;28;20472;-77
2022/12/31 07:44:21;;;;;;;1.50;1.40;;;18.60;67.70;;;;;;4982149;28;20456;-77
2022/12/31 07:46:54;;;;;;;1.33;1.10;;;18.60;67.70;;;;;;4981291;28;20453;-76
2022/12/31 07:49:23;;;;;;;1.50;1.40;;;18.60;67.70;;;;;;4989546;28;20512;-76
2022/12/31 07:51:52;;;;;;;1.50;1.30;;;18.60;67.80;;;;;;4990029;28;20457;-77
2022/12/31 07:54:20;;;;;;;1.27;1.23;;;18.60;67.70;;;;;;4990705;28;20453;-77
2022/12/31 07:56:48;;;;;;;1.67;1.67;;;18.60;67.70;;;;;;4984043;28;20469;-77
2022/12/31 07:59:21;;;;;;;1.57;1.30;;;18.60;67.80;;;;;;4987072;28;20454;-77
2022/12/31 08:01:56;;;;;;;1.10;1.10;;;18.60;67.70;;;;;;4991016;28;20548;-77
2022/12/31 08:04:27;;;;;;;1.80;1.70;;;18.60;67.80;;;;;;4991352;28;20458;-78
2022/12/31 08:07:00;;;;;;;1.30;1.17;;;18.60;67.70;;;;;;4999930;28;20459;-77
2022/12/31 08:09:36;;;;;;;2.87;1.63;;;18.60;67.70;;;;;;4994513;28;20481;-77
2022/12/31 08:12:07;;;;;;;1.17;1.17;;;18.60;67.80;;;;;;4994723;28;20445;-78
2022/12/31 08:14:37;;;;;;;1.60;1.50;;;18.60;67.80;;;;;;4988515;28;20461;-77
2022/12/31 08:17:08;;;;;;;1.20;1.20;;;18.70;67.90;;;;;;4997195;28;20445;-77
2022/12/31 08:19:37;;;;;;;2.20;1.60;;;18.60;67.70;;;;;;5014141;28;20467;-77
2022/12/31 08:22:14;;;;;;;1.20;1.20;;;18.70;67.90;;;;;;5000272;28;20450;-77
2022/12/31 08:24:47;;;;;;;1.43;1.33;;;18.70;67.90;;;;;;4998556;28;20437;-77
2022/12/31 08:27:20;;;;;;;1.70;1.60;;;18.70;67.90;;;;;;4987299;28;20437;-77
2022/12/31 08:29:52;;;;;;;1.27;1.27;;;18.70;67.80;;;;;;4984815;28;20489;-76
2022/12/31 08:32:23;;;;;;;1.63;1.53;;;18.70;67.80;;;;;;4982807;28;20476;-77
2022/12/31 08:34:56;;;;;;;1.37;1.27;;;18.70;67.80;;;;;;4983558;28;20464;-77
2022/12/31 08:37:27;;;;;;;1.63;1.57;;;18.70;67.90;;;;;;4990186;28;20449;-77
2022/12/31 08:40:02;;;;;;;1.30;1.30;;;18.70;67.90;;;;;;4985651;28;20473;-77
2022/12/31 08:42:32;;;;;;;1.70;1.60;;;18.70;67.90;;;;;;4980957;28;20460;-77
2022/12/31 08:45:02;;;;;;;1.37;1.30;;;18.70;67.90;;;;;;4990726;28;20480;-77
2022/12/31 08:47:36;;;;;;;1.70;1.60;;;18.80;67.90;;;;;;4990787;28;20497;-78
2022/12/31 08:50:06;;;;;;;1.40;1.30;;;18.80;67.90;;;;;;4990047;28;20508;-77
2022/12/31 08:52:35;;;;;;;1.43;1.33;;;18.70;67.80;;;;;;4992304;28;20471;-78
2022/12/31 08:55:03;;;;;;;1.60;1.37;;;18.80;67.80;;;;;;4988647;28;20445;-78
2022/12/31 08:57:33;;;;;;;1.80;1.70;;;18.80;67.80;;;;;;4989225;28;20476;-78
2022/12/31 09:00:05;;;;;;;1.70;1.60;;;18.80;67.70;;;;;;4985353;28;20480;-78
2022/12/31 09:02:47;;;;;;;1.30;1.20;;;18.80;67.70;;;;;;4981656;28;20468;-78
2022/12/31 09:05:18;;;;;;;1.60;1.50;;;18.80;67.70;;;;;;4987445;28;20453;-78
2022/12/31 09:07:49;;;;;;;1.43;1.40;;;18.80;67.70;;;;;;4982773;28;20454;-78
2022/12/31 09:10:20;;;;;;;1.10;1.10;;;18.90;67.80;;;;;;4988909;28;20473;-78
2022/12/31 09:12:51;;;;;;;1.47;1.37;;;18.90;67.80;;;;;;4991556;28;20469;-77
2022/12/31 09:15:22;;;;;;;1.50;1.50;;;18.80;67.70;;;;;;4991954;28;20464;-78
2022/12/31 09:17:52;;;;;;;1.70;1.60;;;18.90;67.90;;;;;;4987343;28;20450;-77
2022/12/31 09:20:24;;;;;;;1.63;1.53;;;18.90;67.90;;;;;;4990385;28;20477;-77
2022/12/31 09:22:53;;;;;;;1.83;1.20;;;18.90;67.90;;;;;;4987534;28;20531;-79
2022/12/31 09:25:22;;;;;;;1.20;1.20;;;18.90;67.80;;;;;;4980672;28;20458;-77
2022/12/31 09:28:11;;;;;;;1.40;1.30;;;18.90;67.80;;;;;;4989888;28;20464;-77
2022/12/31 09:30:42;;;;;;;1.47;1.37;;;18.90;67.80;;;;;;4981802;28;20481;-78
2022/12/31 09:33:12;;;;;;;1.70;1.60;;;18.90;67.90;;;;;;4990714;28;20452;-77
2022/12/31 09:35:45;;;;;;;1.47;1.37;;;18.90;68.00;;;;;;4981421;28;20457;-77
2022/12/31 09:38:16;;;;;;;1.50;1.50;;;18.90;68.00;;;;;;4983215;28;20463;-77
2022/12/31 09:41:12;;;;;;;1.33;1.33;;;18.90;67.80;;;;;;4987143;28;20473;-77
2022/12/31 09:44:00;;;;;;;1.50;1.37;;;19.00;67.90;;;;;;4984450;28;20449;-78
2022/12/31 09:46:55;;;;;;;1.40;1.37;;;18.90;67.80;;;;;;4990214;28;20459;-77
2022/12/31 09:49:36;;;;;;;1.23;1.23;;;18.90;67.80;;;;;;4982351;28;20477;-77
2022/12/31 09:52:08;;;;;;;1.30;1.20;;;18.90;67.90;;;;;;4989344;28;20470;-77
2022/12/31 09:54:40;;;;;;;1.57;1.47;;;18.90;67.90;;;;;;4987905;28;20461;-77
2022/12/31 09:57:20;;;;;;;1.50;1.40;;;18.90;67.90;;;;;;4981137;28;20476;-77
2022/12/31 09:59:51;;;;;;;1.00;1.00;;;19.00;68.00;;;;;;4982834;28;20478;-77
2022/12/31 10:02:23;;;;;;;1.20;1.20;;;19.00;68.10;;;;;;4986721;28;20445;-76
2022/12/31 10:04:57;;;;;;;1.40;1.30;;;18.90;68.00;;;;;;4980642;28;20450;-76
2022/12/31 10:07:36;;;;;;;1.47;1.17;;;19.00;68.20;;;;;;4988519;28;20484;-77
2022/12/31 10:10:08;;;;;;;1.30;1.30;;;19.00;68.20;;;;;;4981199;28;21020;-77
2022/12/31 10:12:56;;;;;;;1.40;1.30;;;19.00;68.10;;;;;;4987155;28;20484;-76
2022/12/31 10:15:44;;;;;;;1.73;1.00;;;19.00;68.20;;;;;;4983077;28;20458;-77
2022/12/31 10:18:17;;;;;;;1.50;1.40;;;19.10;68.30;;;;;;4986734;28;20450;-77
2022/12/31 10:20:54;;;;;;;1.10;1.10;;;19.00;68.20;;;;;;4990244;28;20476;-76
2022/12/31 10:23:48;;;;;;;1.50;1.40;;;19.00;68.20;;;;;;4988805;28;20469;-76
2022/12/31 10:26:33;;;;;;;2.73;1.07;;;19.10;68.30;;;;;;4989113;28;20457;-76
2022/12/31 10:29:09;;;;;;;1.27;1.17;;;19.00;68.20;;;;;;4984834;28;20460;-78
2022/12/31 10:31:39;;;;;;;1.33;1.20;;;19.10;68.40;;;;;;4984599;28;20477;-76
2022/12/31 10:34:14;;;;;;;1.20;1.10;;;19.10;68.30;;;;;;4988163;28;20457;-77
2022/12/31 10:37:03;;;;;;;1.30;1.30;;;19.10;68.20;;;;;;4986772;28;20461;-76
2022/12/31 10:39:41;;;;;;;1.30;1.20;;;19.20;68.40;;;;;;4987097;28;20473;-76
2022/12/31 10:42:50;;;;;;;1.10;1.00;;;19.20;68.50;;;;;;4982716;28;20468;-76
2022/12/31 10:45:32;;;;;;;1.00;1.00;;;19.20;68.30;;;;;;4984097;28;20470;-76
2022/12/31 10:48:12;;;;;;;0.80;0.80;;;19.30;68.50;;;;;;4989481;28;20461;-76
2022/12/31 10:51:10;;;;;;;1.00;0.90;;;19.30;68.50;;;;;;4986698;28;20492;-76
2022/12/31 10:54:10;;;;;;;0.93;0.93;;;19.40;68.40;;;;;;4990568;28;20444;-76
2022/12/31 10:57:06;;;;;;;1.20;1.10;;;19.40;68.40;;;;;;4986728;28;20454;-77
2022/12/31 10:59:47;;;;;;;0.90;0.90;;;19.50;68.00;;;;;;4987958;28;20473;-76
2022/12/31 11:02:29;;;;;;;0.90;0.90;;;19.40;68.00;;;;;;4988504;28;20437;-76
2022/12/31 11:05:11;;;;;;;0.90;0.90;;;19.50;68.00;;;;;;4988998;28;20527;-77
2022/12/31 11:07:53;;;;;;;0.80;0.80;;;19.40;68.00;;;;;;4988854;28;20451;-76
2022/12/31 11:10:48;;;;;;;1.33;1.10;;;19.50;68.10;;;;;;4990569;28;20473;-78
2022/12/31 11:14:01;;;;;;;1.00;1.00;;;19.50;68.00;;;;;;4975055;28;20460;-76
2022/12/31 11:16:53;;;;;;;1.00;1.00;;;19.50;68.20;;;;;;4992201;28;20456;-76
2022/12/31 11:19:24;;;;;;;1.10;1.10;;;19.50;68.10;;;;;;4989355;28;20466;-77
2022/12/31 11:22:22;;;;;;;0.90;0.90;;;19.50;68.20;;;;;;4986800;28;20450;-77
2022/12/31 11:25:05;;;;;;;0.90;0.90;;;19.50;68.20;;;;;;4989656;28;20453;-77
2022/12/31 11:27:43;;;;;;;0.80;0.80;;;19.50;68.30;;;;;;4991332;28;20461;-77
2022/12/31 11:30:21;;;;;;;0.77;0.77;;;19.50;68.40;;;;;;4991782;28;20506;-77
2022/12/31 11:32:57;;;;;;;1.00;1.00;;;19.50;68.20;;;;;;4988173;28;20476;-77
2022/12/31 11:35:41;;;;;;;1.00;1.00;;;19.50;68.20;;;;;;4996979;28;20448;-77
2022/12/31 11:38:14;;;;;;;1.47;0.90;;;19.60;68.30;;;;;;4981743;28;20434;-76
2022/12/31 11:40:46;;;;;;;1.90;0.80;;;19.60;68.30;;;;;;4988712;28;20473;-76
2022/12/31 11:43:23;;;;;;;1.00;0.90;;;19.60;68.30;;;;;;4988010;28;20442;-78
2022/12/31 11:46:21;;;;;;;1.10;1.10;;;19.60;68.40;;;;;;4991385;28;20448;-77
2022/12/31 11:48:59;;;;;;;1.10;1.00;;;19.60;68.30;;;;;;4986528;28;20944;-77
2022/12/31 11:51:37;;;;;;;1.03;1.00;;;19.60;68.30;;;;;;4991698;28;20477;-77
2022/12/31 11:54:23;;;;;;;3.50;0.90;;;19.70;68.50;;;;;;4990497;28;20456;-77
2022/12/31 11:56:56;;;;;;;0.90;0.90;;;19.70;68.50;;;;;;4998623;28;20449;-77
2022/12/31 11:59:25;;;;;;;1.00;1.00;;;19.70;69.20;;;;;;5004792;28;20466;-79
2022/12/31 12:01:55;;;;;;;0.90;0.90;;;19.70;68.20;;;;;;5010839;28;20493;-79
2022/12/31 12:04:23;;;;;;;0.90;0.90;;;19.70;68.20;;;;;;5011673;28;20457;-78
2022/12/31 12:06:51;;;;;;;0.87;0.87;;;19.70;68.50;;;;;;5008897;28;20610;-77
2022/12/31 12:09:23;;;;;;;1.57;0.90;;;19.70;68.60;;;;;;5014155;28;20521;-79
2022/12/31 12:11:57;;;;;;;1.63;1.10;;;19.70;68.70;;;;;;5010195;28;20504;-78
2022/12/31 12:14:31;;;;;;;1.23;0.90;;;19.70;68.70;;;;;;5015717;28;20502;-77
2022/12/31 12:16:59;;;;;;;4.87;1.00;;;19.70;69.00;;;;;;5012516;28;20452;-76
2022/12/31 12:19:32;;;;;;;1.00;1.00;;;19.70;69.00;;;;;;5006209;28;20509;-76
2022/12/31 12:22:09;;;;;;;0.97;0.90;;;19.70;69.00;;;;;;4989007;28;20445;-75
2022/12/31 12:24:37;;;;;;;1.93;0.83;;;19.80;69.00;;;;;;4982969;28;20473;-76
2022/12/31 12:27:05;;;;;;;0.80;0.80;;;19.80;68.90;;;;;;4987818;28;20450;-78
2022/12/31 12:29:34;;;;;;;1.10;1.10;;;19.80;68.90;;;;;;4986045;28;20485;-77
2022/12/31 12:32:03;;;;;;;2.00;0.90;;;19.80;68.90;;;;;;4991813;28;20485;-76
2022/12/31 12:34:32;;;;;;;1.17;0.90;;;19.80;69.10;;;;;;4990476;28;20461;-77
2022/12/31 12:37:00;;;;;;;0.90;0.90;;;19.80;69.10;;;;;;4993278;28;20460;-76
2022/12/31 12:39:30;;;;;;;0.90;0.90;;;19.80;69.10;;;;;;4990822;28;20481;-76
2022/12/31 12:42:02;;;;;;;3.03;0.80;;;19.70;69.00;;;;;;4991010;28;20465;-76
2022/12/31 12:44:30;;;;;;;2.13;1.00;;;19.80;68.80;;;;;;4985799;28;20449;-76
2022/12/31 12:47:00;;;;;;;0.83;0.80;;;19.80;69.10;;;;;;4987864;28;20460;-76
2022/12/31 12:49:29;;;;;;;1.10;1.00;;;19.80;69.10;;;;;;4990326;28;20508;-76
2022/12/31 12:52:09;;;;;;;0.90;0.90;;;19.80;69.10;;;;;;4987145;28;20479;-76
2022/12/31 12:54:43;;;;;;;0.93;0.93;;;19.90;69.00;;;;;;4987801;28;20445;-76
2022/12/31 12:57:14;;;;;;;3.13;1.10;;;19.90;69.00;;;;;;4989218;28;20456;-76
2022/12/31 13:00:02;;;;;;;2.40;1.13;;;19.90;69.10;;;;;;4987331;28;20477;-77
2022/12/31 13:02:56;;;;;;;1.23;1.13;;;19.90;69.20;;;;;;4987926;28;20544;-77
2022/12/31 13:05:29;;;;;;;0.90;0.90;;;20.00;69.00;;;;;;4993984;28;20449;-76
2022/12/31 13:07:59;;;;;;;1.10;1.10;;;20.00;69.00;;;;;;4986326;28;20445;-77
2022/12/31 13:10:40;;;;;;;1.07;0.97;;;20.00;68.90;;;;;;4986055;28;20483;-76
2022/12/31 13:13:12;;;;;;;1.63;0.90;;;20.00;68.90;;;;;;4990065;28;20509;-76
2022/12/31 13:15:54;;;;;;;1.03;1.03;;;20.00;68.80;;;;;;4987914;28;20458;-76
2022/12/31 13:18:30;;;;;;;1.00;1.00;;;20.00;69.00;;;;;;4989170;28;20458;-76
2022/12/31 13:21:00;;;;;;;0.97;0.87;;;20.00;68.90;;;;;;4987950;28;20477;-76
2022/12/31 13:23:31;;;;;;;1.13;1.00;;;20.10;69.50;;;;;;4985740;28;20463;-77
2022/12/31 13:26:08;;;;;;;0.80;0.80;;;20.10;68.80;;;;;;4991498;28;20463;-76